Aviation Digital Data Service (ADDS)

Output produced by TAFs form (1541 UTC 22 August 2014)
found at http://www.aviationweather.gov/adds/tafs/
 
KPSF 221136Z 2212/2312 10005KT P6SM -SHRA SCT015 OVC030 
     TEMPO 2212/2214 3SM -SHRA BR SCT008 OVC015 
     FM230200 09004KT P6SM VCSH BKN015 OVC025 
     FM230900 VRB03KT 3SM BR VCSH SCT006 OVC012